createdAt,value
2019-02-22T00:02:33.294Z,149.60
2019-02-22T00:05:04.162Z,148.90
2019-02-22T00:07:35.294Z,177.70
2019-02-22T00:10:07.821Z,168.17
2019-02-22T00:12:38.685Z,189.27
2019-02-22T00:15:09.694Z,150.10
2019-02-22T00:17:41.089Z,181.13
2019-02-22T00:20:11.967Z,195.80
2019-02-22T00:22:42.893Z,178.97
2019-02-22T00:25:14.488Z,185.97
2019-02-22T00:27:45.166Z,152.53
2019-02-22T00:30:15.634Z,177.53
2019-02-22T00:32:46.166Z,161.97
2019-02-22T00:35:16.663Z,197.00
2019-02-22T00:37:47.186Z,155.57
2019-02-22T00:40:17.708Z,147.10
2019-02-22T00:42:50.257Z,163.33
2019-02-22T00:45:20.419Z,169.67
2019-02-22T00:47:50.946Z,170.27
2019-02-22T00:50:21.370Z,172.83
2019-02-22T00:52:51.944Z,157.73
2019-02-22T00:55:22.594Z,153.93
2019-02-22T00:57:53.188Z,167.07
2019-02-22T01:00:25.666Z,156.67
2019-02-22T01:02:56.260Z,171.87
2019-02-22T01:05:26.924Z,161.27
2019-02-22T01:07:57.452Z,157.50
2019-02-22T01:10:31.397Z,167.97
2019-02-22T01:13:00.060Z,155.63
2019-02-22T01:15:30.632Z,155.27
2019-02-22T01:18:02.108Z,135.03
2019-02-22T01:20:32.709Z,154.70
2019-02-22T01:23:03.166Z,167.57
2019-02-22T01:25:33.720Z,133.50
2019-02-22T01:28:04.288Z,180.07
2019-02-22T01:30:34.954Z,188.87
2019-02-22T01:33:06.024Z,149.87
2019-02-22T01:35:36.558Z,153.50
2019-02-22T01:38:07.135Z,159.00
2019-02-22T01:40:43.742Z,144.77
2019-02-22T01:43:09.881Z,113.00
2019-02-22T01:45:40.441Z,152.37
2019-02-22T01:48:10.942Z,140.63
2019-02-22T01:50:41.516Z,142.50
2019-02-22T01:53:11.979Z,150.30
2019-02-22T01:55:42.601Z,154.30
2019-02-22T01:58:14.451Z,161.07
2019-02-22T02:00:44.921Z,122.03
2019-02-22T02:03:15.387Z,153.57
2019-02-22T02:05:45.894Z,137.53
2019-02-22T02:08:16.723Z,143.70
2019-02-22T02:10:54.114Z,146.87
2019-02-22T02:13:19.606Z,142.07
2019-02-22T02:15:50.215Z,139.60
2019-02-22T02:18:20.788Z,128.80
2019-02-22T02:20:51.907Z,133.87
2019-02-22T02:23:25.628Z,118.50
2019-02-22T02:25:56.162Z,128.33
2019-02-22T02:28:26.718Z,130.87
2019-02-22T02:30:57.367Z,123.90
2019-02-22T02:33:27.880Z,128.60
2019-02-22T02:35:58.457Z,153.60
2019-02-22T02:38:29.053Z,137.27
2019-02-22T02:41:09.802Z,143.10
2019-02-22T02:43:31.831Z,145.27
2019-02-22T02:46:02.643Z,155.33
2019-02-22T02:48:33.224Z,130.73
2019-02-22T02:51:03.775Z,132.80
2019-02-22T02:53:34.434Z,133.53
2019-02-22T02:56:05.066Z,127.50
2019-02-22T02:58:35.676Z,96.33
2019-02-22T03:01:06.320Z,121.80
2019-02-22T03:03:38.858Z,83.47
2019-02-22T03:06:28.261Z,89.53
2019-02-22T03:08:59.008Z,67.87
2019-02-22T03:11:29.569Z,64.57
2019-02-22T03:14:00.321Z,66.23
2019-02-22T03:16:32.013Z,54.37
2019-02-22T03:19:02.641Z,44.83
2019-02-22T03:21:33.184Z,42.23
2019-02-22T03:24:03.695Z,58.10
2019-02-22T03:26:34.237Z,46.00
2019-02-22T03:29:04.774Z,28.97
2019-02-22T03:31:35.359Z,14.20
2019-02-22T03:34:05.919Z,14.33
2019-02-22T03:36:36.509Z,17.93
2019-02-22T03:39:09.120Z,9.50
2019-02-22T03:41:39.723Z,8.73
2019-02-22T03:44:10.274Z,6.60
2019-02-22T03:46:40.736Z,9.47
2019-02-22T03:49:11.227Z,11.60
2019-02-22T03:51:41.691Z,13.50
2019-02-22T03:54:12.141Z,12.30
2019-02-22T03:56:42.627Z,10.13
2019-02-22T03:59:13.220Z,12.53
2019-02-22T04:01:43.821Z,10.57
2019-02-22T04:04:14.337Z,12.63
2019-02-22T04:06:44.885Z,13.10
2019-02-22T04:09:15.379Z,9.60
2019-02-22T04:11:46.534Z,12.60
2019-02-22T04:14:17.199Z,11.23
2019-02-22T04:16:47.665Z,14.83
2019-02-22T04:19:18.133Z,16.63
2019-02-22T04:21:48.648Z,18.50
2019-02-22T04:24:19.138Z,19.83
2019-02-22T04:26:49.670Z,14.03
2019-02-22T04:29:20.177Z,12.30
2019-02-22T04:31:50.812Z,10.37
2019-02-22T04:34:21.277Z,9.80
2019-02-22T04:36:51.813Z,11.33
2019-02-22T04:39:22.331Z,10.07
2019-02-22T04:41:58.080Z,11.90
2019-02-22T04:44:26.551Z,11.63
2019-02-22T04:46:57.057Z,8.97
2019-02-22T04:49:27.580Z,9.73
2019-02-22T04:51:58.079Z,10.97
2019-02-22T04:54:29.627Z,12.17
2019-02-22T04:57:00.153Z,13.33
2019-02-22T04:59:30.672Z,19.17
2019-02-22T05:02:01.201Z,17.53
2019-02-22T05:04:31.707Z,18.63
2019-02-22T05:07:02.283Z,17.33
2019-02-22T05:09:32.855Z,22.43
2019-02-22T05:12:10.865Z,18.97
2019-02-22T05:14:35.597Z,23.57
2019-02-22T05:17:06.127Z,22.50
2019-02-22T05:19:36.723Z,18.17
2019-02-22T05:22:07.404Z,27.00
2019-02-22T05:24:37.872Z,25.17
2019-02-22T05:27:08.659Z,24.03
2019-02-22T05:29:39.129Z,22.73
2019-02-22T05:32:10.849Z,24.00
2019-02-22T05:34:41.381Z,25.40
2019-02-22T05:37:11.793Z,23.57
2019-02-22T05:39:42.391Z,16.43
2019-02-22T05:42:22.638Z,19.27
2019-02-22T05:44:45.181Z,17.17
2019-02-22T05:47:15.720Z,18.80
2019-02-22T05:49:46.265Z,19.37
2019-02-22T05:52:16.794Z,20.13
2019-02-22T05:54:47.347Z,21.73
2019-02-22T05:57:17.853Z,20.40
2019-02-22T05:59:48.368Z,15.17
2019-02-22T06:02:20.859Z,13.53
2019-02-22T06:04:51.371Z,15.87
2019-02-22T06:07:23.143Z,20.23
2019-02-22T06:09:53.662Z,13.07
2019-02-22T06:12:34.223Z,13.73
2019-02-22T06:14:56.387Z,13.37
2019-02-22T06:17:26.965Z,15.47
2019-02-22T06:19:57.486Z,15.87
2019-02-22T06:22:29.922Z,16.97
2019-02-22T06:25:00.471Z,19.83
2019-02-22T06:27:30.927Z,17.37
2019-02-22T06:30:01.492Z,18.90
2019-02-22T06:32:32.113Z,18.73
2019-02-22T06:35:02.724Z,21.73
2019-02-22T06:37:33.367Z,18.87
2019-02-22T06:40:03.842Z,17.67
2019-02-22T06:42:44.970Z,23.23
2019-02-22T06:45:06.829Z,18.90
2019-02-22T06:47:37.350Z,22.47
2019-02-22T06:50:07.975Z,23.03
2019-02-22T06:52:38.510Z,21.03
2019-02-22T06:55:09.200Z,18.03
2019-02-22T06:57:39.754Z,18.93
2019-02-22T07:00:11.460Z,19.47
2019-02-22T07:02:42.132Z,18.50
2019-02-22T07:05:12.752Z,13.90
2019-02-22T07:07:44.471Z,14.27
2019-02-22T07:10:14.997Z,21.03
2019-02-22T07:12:56.269Z,27.10
2019-02-22T07:15:21.152Z,17.83
2019-02-22T07:17:51.724Z,21.43
2019-02-22T07:20:22.286Z,19.77
2019-02-22T07:22:52.748Z,26.50
2019-02-22T07:25:23.255Z,19.07
2019-02-22T07:27:53.842Z,21.83
2019-02-22T07:30:24.512Z,18.70
2019-02-22T07:32:54.995Z,19.80
2019-02-22T07:35:25.568Z,30.10
2019-02-22T07:37:56.031Z,24.50
2019-02-22T07:40:26.557Z,24.97
2019-02-22T07:43:07.537Z,26.77
2019-02-22T07:45:30.414Z,21.67
2019-02-22T07:48:01.271Z,22.03
2019-02-22T07:50:31.778Z,22.17
2019-02-22T07:53:02.397Z,24.80
2019-02-22T07:55:32.908Z,21.03
2019-02-22T07:58:03.537Z,20.93
2019-02-22T08:00:34.057Z,17.13
2019-02-22T08:03:04.768Z,19.90
2019-02-22T08:05:35.237Z,24.67
2019-02-22T08:08:05.747Z,17.97
2019-02-22T08:10:36.312Z,16.20
2019-02-22T08:13:06.769Z,20.27
2019-02-22T08:15:37.277Z,22.27
2019-02-22T08:18:07.965Z,15.23
2019-02-22T08:20:38.547Z,16.50
2019-02-22T08:23:09.222Z,12.90
2019-02-22T08:25:39.844Z,13.80
2019-02-22T08:28:10.442Z,13.47
2019-02-22T08:30:40.986Z,19.10
2019-02-22T08:33:12.533Z,17.93
2019-02-22T08:35:43.313Z,12.43
2019-02-22T08:38:13.942Z,14.53
2019-02-22T08:40:45.540Z,13.13
2019-02-22T08:43:16.123Z,12.67
2019-02-22T08:45:47.028Z,14.40
2019-02-22T08:48:17.509Z,9.90
2019-02-22T08:50:48.086Z,10.83
2019-02-22T08:53:19.944Z,14.30
2019-02-22T08:55:53.676Z,12.13
2019-02-22T08:58:24.265Z,11.43
2019-02-22T09:00:54.909Z,10.17
2019-02-22T09:03:25.786Z,13.23
2019-02-22T09:05:56.758Z,10.37
2019-02-22T09:08:27.352Z,9.43
2019-02-22T09:11:00.750Z,7.27
2019-02-22T09:13:30.123Z,8.43
2019-02-22T09:16:00.749Z,7.30
2019-02-22T09:18:31.220Z,9.33
2019-02-22T09:21:01.733Z,8.03
2019-02-22T09:23:32.281Z,8.83
2019-02-22T09:26:02.863Z,8.80
2019-02-22T09:28:33.376Z,15.77
2019-02-22T09:31:03.936Z,9.23
2019-02-22T09:33:34.381Z,12.33
2019-02-22T09:36:05.006Z,13.97
2019-02-22T09:38:35.679Z,9.10
2019-02-22T09:41:06.196Z,11.63
2019-02-22T09:43:36.788Z,11.23
2019-02-22T09:46:07.641Z,16.20
2019-02-22T09:48:38.239Z,10.90
2019-02-22T09:51:08.708Z,13.07
2019-02-22T09:53:39.422Z,10.43
2019-02-22T09:56:09.990Z,12.83
2019-02-22T09:58:40.554Z,9.70
2019-02-22T10:01:11.224Z,8.53
2019-02-22T10:03:41.736Z,11.63
2019-02-22T10:06:12.208Z,8.53
2019-02-22T10:08:42.774Z,11.73
2019-02-22T10:11:13.460Z,10.83
2019-02-22T10:13:45.377Z,10.67
2019-02-22T10:16:15.868Z,12.47
2019-02-22T10:18:47.480Z,10.23
2019-02-22T10:21:18.003Z,9.30
2019-02-22T10:23:48.538Z,11.27
2019-02-22T10:26:21.418Z,8.97
2019-02-22T10:28:51.341Z,9.33
2019-02-22T10:31:22.114Z,13.50
2019-02-22T10:33:52.760Z,7.97
2019-02-22T10:36:23.440Z,10.83
2019-02-22T10:38:55.713Z,9.67
2019-02-22T10:41:26.171Z,9.37
2019-02-22T10:43:56.680Z,9.23
2019-02-22T10:46:27.277Z,10.07
2019-02-22T10:48:57.814Z,9.77
2019-02-22T10:51:28.318Z,15.93
2019-02-22T10:53:58.842Z,7.20
2019-02-22T10:56:29.318Z,8.03
2019-02-22T10:58:59.816Z,8.23
2019-02-22T11:01:30.362Z,6.27
2019-02-22T11:04:01.935Z,7.53
2019-02-22T11:06:32.512Z,11.20
2019-02-22T11:09:04.836Z,8.27
2019-02-22T11:11:37.400Z,10.33
2019-02-22T11:14:07.976Z,9.50
2019-02-22T11:16:38.434Z,5.67
2019-02-22T11:19:08.925Z,10.37
2019-02-22T11:21:40.531Z,7.03
2019-02-22T11:24:11.027Z,6.90
2019-02-22T11:26:41.869Z,6.83
2019-02-22T11:29:12.396Z,13.50
2019-02-22T11:31:42.955Z,11.70
2019-02-22T11:34:13.438Z,10.60
2019-02-22T11:36:43.980Z,7.27
2019-02-22T11:39:14.539Z,6.90
2019-02-22T11:41:45.200Z,7.07
2019-02-22T11:44:15.715Z,19.50
2019-02-22T11:46:46.242Z,20.93
2019-02-22T11:49:16.732Z,9.87
2019-02-22T11:51:47.207Z,11.50
2019-02-22T11:54:17.774Z,13.80
2019-02-22T11:56:48.275Z,11.67
2019-02-22T11:59:18.715Z,7.63
2019-02-22T12:01:49.408Z,8.63
2019-02-22T12:04:19.940Z,5.47
2019-02-22T12:06:51.326Z,8.50
2019-02-22T12:09:22.113Z,14.30
2019-02-22T12:11:52.610Z,6.47
2019-02-22T12:14:23.172Z,9.83
2019-02-22T12:16:53.876Z,7.50
2019-02-22T12:19:24.584Z,8.93
2019-02-22T12:21:55.133Z,8.17
2019-02-22T12:24:27.672Z,10.43
2019-02-22T12:26:58.314Z,7.00
2019-02-22T12:29:28.905Z,7.73
2019-02-22T12:31:59.538Z,8.10
2019-02-22T12:34:30.376Z,9.43
2019-02-22T12:37:01.098Z,10.40
2019-02-22T12:39:31.701Z,7.67
2019-02-22T12:42:02.440Z,8.27
2019-02-22T12:44:33.060Z,6.23
2019-02-22T12:47:03.594Z,15.93
2019-02-22T12:49:36.124Z,8.13
2019-02-22T12:52:06.777Z,7.17
2019-02-22T12:54:37.426Z,7.83
2019-02-22T12:57:07.848Z,8.10
2019-02-22T12:59:38.420Z,11.33
2019-02-22T13:02:08.872Z,10.47
2019-02-22T13:04:39.335Z,12.90
2019-02-22T13:07:09.961Z,8.90
2019-02-22T13:09:40.532Z,8.30
2019-02-22T13:12:13.946Z,8.57
2019-02-22T13:14:43.264Z,11.10
2019-02-22T13:17:13.841Z,7.03
2019-02-22T13:19:44.471Z,8.63
2019-02-22T13:22:15.037Z,6.63
2019-02-22T13:24:45.514Z,8.53
2019-02-22T13:27:16.106Z,6.23
2019-02-22T13:29:46.682Z,13.13
2019-02-22T13:32:17.250Z,11.67
2019-02-22T13:34:47.682Z,8.83
2019-02-22T13:37:18.242Z,9.80
2019-02-22T13:39:48.800Z,6.83
2019-02-22T13:42:22.483Z,10.73
2019-02-22T13:44:53.155Z,11.83
2019-02-22T13:47:23.635Z,10.47
2019-02-22T13:49:54.222Z,12.03
2019-02-22T13:52:24.772Z,10.43
2019-02-22T13:54:55.326Z,12.63
2019-02-22T13:57:25.752Z,9.57
2019-02-22T13:59:56.380Z,12.07
2019-02-22T14:02:26.908Z,8.47
2019-02-22T14:04:57.659Z,10.83
2019-02-22T14:07:28.185Z,12.60
2019-02-22T14:09:58.680Z,13.60
2019-02-22T14:12:29.160Z,9.93
2019-02-22T14:14:59.748Z,11.20
2019-02-22T14:17:30.427Z,10.17
2019-02-22T14:20:00.994Z,23.73
2019-02-22T14:22:32.384Z,23.20
2019-02-22T14:25:02.962Z,24.13
2019-02-22T14:27:33.589Z,6.13
2019-02-22T14:30:04.270Z,6.20
2019-02-22T14:32:35.557Z,13.33
2019-02-22T14:35:06.494Z,10.47
2019-02-22T14:37:37.122Z,9.70
2019-02-22T14:40:09.560Z,9.97
2019-02-22T14:42:40.195Z,12.40
2019-02-22T14:45:10.794Z,13.37
2019-02-22T14:47:41.422Z,11.73
2019-02-22T14:50:13.679Z,10.10
2019-02-22T14:52:44.201Z,8.63
2019-02-22T14:55:14.918Z,7.93
2019-02-22T14:57:45.576Z,7.83
2019-02-22T15:00:17.227Z,9.03
2019-02-22T15:02:48.877Z,16.60
2019-02-22T15:05:19.390Z,7.63
2019-02-22T15:07:50.159Z,12.37
2019-02-22T15:10:20.680Z,13.37
2019-02-22T15:12:51.262Z,7.13
2019-02-22T15:15:23.912Z,7.87
2019-02-22T15:17:57.123Z,10.17
2019-02-22T15:20:27.600Z,9.60
2019-02-22T15:22:58.262Z,11.47
2019-02-22T15:25:28.750Z,11.63
2019-02-22T15:27:59.306Z,16.63
2019-02-22T15:30:30.091Z,9.77
2019-02-22T15:33:08.029Z,12.13
2019-02-22T15:35:38.547Z,11.40
2019-02-22T15:38:10.148Z,6.87
2019-02-22T15:40:40.694Z,9.57
2019-02-22T15:43:11.252Z,7.93
2019-02-22T15:45:41.734Z,9.97
2019-02-22T15:48:14.520Z,7.63
2019-02-22T15:50:44.519Z,16.37
2019-02-22T15:53:15.063Z,14.30
2019-02-22T15:55:45.711Z,11.27
2019-02-22T15:58:16.321Z,10.57
2019-02-22T16:00:46.829Z,12.93
2019-02-22T16:03:18.472Z,18.17
2019-02-22T16:05:49.198Z,12.97
2019-02-22T16:08:19.829Z,15.23
2019-02-22T16:10:50.334Z,15.03
2019-02-22T16:13:20.834Z,10.57
2019-02-22T16:15:51.348Z,14.93
2019-02-22T16:18:21.883Z,13.93
2019-02-22T16:20:52.449Z,19.40
2019-02-22T16:23:22.980Z,14.67
2019-02-22T16:25:53.564Z,13.03
2019-02-22T16:28:24.097Z,16.70
2019-02-22T16:30:54.694Z,21.63
2019-02-22T16:33:25.279Z,15.83
2019-02-22T16:35:55.862Z,9.37
2019-02-22T16:38:26.396Z,23.57
2019-02-22T16:40:56.979Z,14.23
2019-02-22T16:43:29.031Z,12.60
2019-02-22T16:45:59.616Z,19.30
2019-02-22T16:48:30.105Z,11.90
2019-02-22T16:51:00.583Z,16.50
2019-02-22T16:53:32.322Z,16.90
2019-02-22T16:56:02.836Z,13.33
2019-02-22T16:58:33.477Z,31.77
2019-02-22T17:01:04.081Z,34.90
2019-02-22T17:03:34.689Z,22.60
2019-02-22T17:06:05.343Z,21.23
2019-02-22T17:08:35.917Z,19.27
2019-02-22T17:11:06.454Z,19.73
2019-02-22T17:13:36.911Z,19.47
2019-02-22T17:16:08.533Z,18.60
2019-02-22T17:18:39.101Z,18.73
2019-02-22T17:21:09.763Z,22.97
2019-02-22T17:23:40.231Z,18.40
2019-02-22T17:26:14.930Z,23.63
2019-02-22T17:28:45.531Z,19.27
2019-02-22T17:31:16.116Z,29.83
2019-02-22T17:33:46.985Z,26.93
2019-02-22T17:36:26.454Z,29.97
2019-02-22T17:38:49.927Z,26.33
2019-02-22T17:41:20.529Z,28.37
2019-02-22T17:43:52.031Z,32.23
2019-02-22T17:46:22.628Z,25.00
2019-02-22T17:48:53.172Z,22.80
2019-02-22T17:51:23.676Z,52.07
2019-02-22T17:53:54.116Z,34.60
2019-02-22T17:56:24.725Z,33.07
2019-02-22T17:58:55.275Z,35.27
2019-02-22T18:01:25.865Z,33.93
2019-02-22T18:03:56.428Z,24.50
2019-02-22T18:06:26.892Z,22.17
2019-02-22T18:08:57.457Z,32.10
2019-02-22T18:11:27.988Z,25.57
2019-02-22T18:13:58.502Z,17.57
2019-02-22T18:16:30.103Z,22.40
2019-02-22T18:19:00.971Z,29.70
2019-02-22T18:21:31.466Z,25.23
2019-02-22T18:24:02.032Z,24.83
2019-02-22T18:26:33.262Z,14.17
2019-02-22T18:29:03.813Z,14.53
2019-02-22T18:31:34.306Z,19.03
2019-02-22T18:34:05.260Z,18.00
2019-02-22T18:36:36.037Z,16.83
2019-02-22T18:39:07.805Z,17.23
2019-02-22T18:41:39.379Z,12.50
2019-02-22T18:44:09.999Z,12.93
2019-02-22T18:46:40.564Z,15.20
2019-02-22T18:49:11.147Z,20.47
2019-02-22T18:51:41.680Z,14.57
2019-02-22T18:54:12.301Z,15.17
2019-02-22T18:56:42.831Z,22.57
2019-02-22T18:59:13.445Z,15.47
2019-02-22T19:01:43.899Z,17.47
2019-02-22T19:04:14.586Z,21.00
2019-02-22T19:06:45.085Z,18.27
2019-02-22T19:09:15.685Z,14.30
2019-02-22T19:11:46.182Z,21.37
2019-02-22T19:14:16.825Z,12.00
2019-02-22T19:16:47.370Z,12.23
2019-02-22T19:19:17.895Z,11.70
2019-02-22T19:21:48.415Z,8.67
2019-02-22T19:24:19.039Z,18.30
2019-02-22T19:26:50.875Z,17.77
2019-02-22T19:29:21.407Z,22.20
2019-02-22T19:31:51.901Z,20.80
2019-02-22T19:34:22.390Z,19.00
2019-02-22T19:36:52.978Z,19.80
2019-02-22T19:39:23.540Z,16.63
2019-02-22T19:41:54.041Z,17.67
2019-02-22T19:44:24.634Z,14.53
2019-02-22T19:46:55.784Z,19.43
2019-02-22T19:49:26.516Z,14.93
2019-02-22T19:51:57.421Z,18.60
2019-02-22T19:54:29.925Z,14.97
2019-02-22T19:57:00.453Z,13.87
2019-02-22T19:59:30.917Z,16.93
2019-02-22T20:02:01.481Z,20.30
2019-02-22T20:04:33.237Z,16.57
2019-02-22T20:07:03.843Z,13.87
2019-02-22T20:09:34.583Z,9.77
2019-02-22T20:12:05.136Z,22.37
2019-02-22T20:14:35.766Z,13.67
2019-02-22T20:17:06.311Z,22.13
2019-02-22T20:19:36.970Z,27.43
2019-02-22T20:22:07.592Z,25.83
2019-02-22T20:24:38.128Z,15.53
2019-02-22T20:27:08.791Z,17.53
2019-02-22T20:29:39.372Z,15.87
2019-02-22T20:32:09.980Z,17.43
2019-02-22T20:34:40.621Z,18.87
2019-02-22T20:37:11.203Z,25.97
2019-02-22T20:39:42.010Z,14.53
2019-02-22T20:42:12.576Z,22.00
2019-02-22T20:44:43.192Z,16.77
2019-02-22T20:47:13.721Z,23.07
2019-02-22T20:49:44.241Z,24.67
2019-02-22T20:52:14.754Z,23.53
2019-02-22T20:54:45.375Z,18.33
2019-02-22T20:57:15.913Z,29.50
2019-02-22T20:59:46.484Z,22.83
2019-02-22T21:02:17.102Z,34.33
2019-02-22T21:04:47.661Z,34.00
2019-02-22T21:07:18.265Z,39.40
2019-02-22T21:09:48.929Z,34.17
2019-02-22T21:12:19.497Z,42.73
2019-02-22T21:14:50.110Z,36.77
2019-02-22T21:17:20.622Z,53.30
2019-02-22T21:19:51.145Z,81.77
2019-02-22T21:22:21.819Z,71.50
2019-02-22T21:24:52.260Z,67.47
2019-02-22T21:27:22.771Z,46.70
2019-02-22T21:29:53.413Z,57.90
2019-02-22T21:32:23.905Z,46.03
2019-02-22T21:34:54.463Z,51.27
2019-02-22T21:37:25.292Z,54.23
2019-02-22T21:39:55.841Z,53.23
2019-02-22T21:42:26.480Z,41.70
2019-02-22T21:44:57.064Z,48.23
2019-02-22T21:47:27.842Z,41.27
2019-02-22T21:49:58.393Z,60.10
2019-02-22T21:52:29.203Z,93.23
2019-02-22T21:54:59.726Z,120.30
2019-02-22T21:57:30.462Z,143.50
2019-02-22T22:00:00.942Z,242.53
2019-02-22T22:02:32.740Z,233.43
2019-02-22T22:05:03.231Z,129.93
2019-02-22T22:07:33.781Z,126.00
2019-02-22T22:10:04.280Z,64.70
2019-02-22T22:12:34.829Z,51.00
2019-02-22T22:15:05.566Z,42.97
2019-02-22T22:17:37.267Z,36.47
2019-02-22T22:20:07.822Z,33.90
2019-02-22T22:22:38.409Z,24.17
2019-02-22T22:25:10.096Z,22.37
2019-02-22T22:27:40.614Z,16.53
2019-02-22T22:30:11.917Z,25.27
2019-02-22T22:32:43.423Z,24.67
2019-02-22T22:35:13.978Z,23.00
2019-02-22T22:37:44.509Z,19.73
2019-02-22T22:40:15.015Z,23.30
2019-02-22T22:42:46.696Z,21.10
2019-02-22T22:45:17.232Z,25.83
2019-02-22T22:47:47.785Z,20.57
2019-02-22T22:50:18.352Z,23.13
2019-02-22T22:52:48.878Z,19.17
2019-02-22T22:55:19.341Z,18.60
2019-02-22T22:57:49.911Z,22.30
2019-02-22T23:01:05.976Z,20.13
2019-02-22T23:03:38.764Z,15.10
2019-02-22T23:06:10.718Z,16.83
2019-02-22T23:08:41.330Z,18.53
2019-02-22T23:11:11.939Z,19.33
2019-02-22T23:13:43.594Z,25.03
2019-02-22T23:16:15.323Z,25.33
2019-02-22T23:18:45.846Z,20.53
2019-02-22T23:21:17.427Z,20.50
2019-02-22T23:23:47.903Z,17.10
2019-02-22T23:26:18.444Z,32.40
2019-02-22T23:28:49.062Z,41.97
2019-02-22T23:31:19.601Z,23.67
2019-02-22T23:33:50.172Z,25.80
2019-02-22T23:36:20.696Z,21.33
2019-02-22T23:38:51.455Z,25.80
2019-02-22T23:41:21.959Z,24.37
2019-02-22T23:43:52.519Z,26.67
2019-02-22T23:46:23.084Z,26.70
2019-02-22T23:48:55.168Z,21.47
2019-02-22T23:51:25.769Z,23.50
2019-02-22T23:53:56.302Z,22.63
2019-02-22T23:56:26.801Z,24.53
2019-02-22T23:58:57.293Z,27.57
